createdAt,value
2018-03-24T00:02:20.140Z,27.77
2018-03-24T00:04:51.116Z,26.67
2018-03-24T00:07:22.098Z,27.00
2018-03-24T00:09:53.123Z,26.93
2018-03-24T00:12:24.108Z,24.93
2018-03-24T00:14:55.086Z,25.40
2018-03-24T00:17:26.095Z,24.33
2018-03-24T00:19:57.057Z,26.87
2018-03-24T00:22:28.063Z,24.73
2018-03-24T00:24:59.061Z,24.70
2018-03-24T00:27:30.029Z,24.87
2018-03-24T00:30:01.050Z,25.83
2018-03-24T00:32:32.044Z,25.40
2018-03-24T00:35:03.126Z,26.27
2018-03-24T00:37:34.092Z,24.90
2018-03-24T00:40:05.099Z,26.33
2018-03-24T00:42:36.029Z,27.40
2018-03-24T00:45:06.999Z,25.47
2018-03-24T00:47:37.987Z,27.37
2018-03-24T00:50:08.978Z,26.57
2018-03-24T00:52:39.990Z,27.83
2018-03-24T00:55:10.991Z,29.50
2018-03-24T00:57:42.003Z,32.43
2018-03-24T01:00:13.017Z,27.63
2018-03-24T01:02:44.009Z,30.27
2018-03-24T01:05:15.000Z,31.17
2018-03-24T01:07:46.015Z,30.43
2018-03-24T01:10:16.975Z,30.43
2018-03-24T01:12:47.974Z,29.20
2018-03-24T01:15:18.953Z,29.13
2018-03-24T01:17:49.982Z,30.63
2018-03-24T01:20:20.981Z,30.27
2018-03-24T01:22:51.985Z,30.93
2018-03-24T01:25:22.983Z,30.63
2018-03-24T01:27:53.936Z,29.00
2018-03-24T01:30:24.935Z,31.63
2018-03-24T01:32:55.898Z,30.87
2018-03-24T01:35:26.945Z,28.43
2018-03-24T01:37:57.893Z,29.73
2018-03-24T01:40:28.902Z,30.10
2018-03-24T01:42:59.858Z,31.30
2018-03-24T01:45:30.803Z,28.77
2018-03-24T01:48:01.778Z,28.87
2018-03-24T01:50:32.746Z,28.60
2018-03-24T01:53:03.786Z,28.83
2018-03-24T01:55:34.801Z,29.02
2018-03-24T01:58:05.800Z,29.17
2018-03-24T02:00:36.817Z,29.30
2018-03-24T02:03:07.833Z,28.53
2018-03-24T02:05:38.865Z,29.37
2018-03-24T02:08:09.903Z,27.80
2018-03-24T02:10:40.907Z,29.43
2018-03-24T02:13:11.916Z,29.40
2018-03-24T02:15:42.933Z,30.13
2018-03-24T02:18:13.941Z,29.80
2018-03-24T02:20:45.041Z,30.10
2018-03-24T02:23:16.004Z,29.33
2018-03-24T02:25:47.056Z,31.37
2018-03-24T02:28:18.051Z,32.33
2018-03-24T02:30:49.065Z,30.47
2018-03-24T02:33:20.110Z,29.37
2018-03-24T02:35:51.081Z,31.45
2018-03-24T02:38:22.112Z,28.87
2018-03-24T02:40:53.140Z,30.57
2018-03-24T02:43:24.174Z,31.50
2018-03-24T02:45:55.196Z,30.77
2018-03-24T02:48:26.209Z,31.65
2018-03-24T02:50:57.185Z,33.78
2018-03-24T02:53:28.279Z,35.37
2018-03-24T02:55:59.286Z,36.67
2018-03-24T02:58:30.303Z,34.83
2018-03-24T03:01:01.310Z,35.08
2018-03-24T03:03:32.324Z,35.38
2018-03-24T03:06:03.310Z,36.10
2018-03-24T03:08:34.317Z,36.80
2018-03-24T03:11:05.346Z,36.25
2018-03-24T03:13:36.335Z,35.38
2018-03-24T03:16:07.369Z,38.53
2018-03-24T03:18:38.321Z,38.80
2018-03-24T03:21:09.336Z,39.63
2018-03-24T03:23:40.307Z,41.65
2018-03-24T03:26:11.279Z,40.53
2018-03-24T03:28:42.278Z,42.70
2018-03-24T03:31:15.308Z,40.67
2018-03-24T03:33:46.283Z,41.80
2018-03-24T03:36:17.268Z,42.40
2018-03-24T03:38:48.268Z,41.70
2018-03-24T03:41:19.236Z,43.10
2018-03-24T03:43:50.219Z,41.77
2018-03-24T03:46:21.209Z,45.40
2018-03-24T03:48:52.184Z,44.83
2018-03-24T03:51:23.175Z,44.47
2018-03-24T03:53:54.189Z,43.60
2018-03-24T03:56:25.209Z,45.15
2018-03-24T03:58:56.204Z,45.55
2018-03-24T04:01:27.195Z,44.97
2018-03-24T04:03:58.217Z,45.30
2018-03-24T04:06:29.233Z,43.28
2018-03-24T04:09:00.176Z,46.22
2018-03-24T04:11:31.169Z,46.97
2018-03-24T04:14:02.147Z,44.70
2018-03-24T04:16:33.206Z,45.40
2018-03-24T04:19:04.169Z,47.15
2018-03-24T04:21:35.184Z,45.27
2018-03-24T04:24:06.169Z,46.63
2018-03-24T04:26:37.165Z,45.73
2018-03-24T04:29:08.164Z,47.13
2018-03-24T04:31:39.209Z,48.87
2018-03-24T04:34:10.185Z,43.38
2018-03-24T04:36:41.212Z,43.53
2018-03-24T04:39:12.192Z,44.65
2018-03-24T04:41:43.183Z,42.27
2018-03-24T04:44:14.163Z,43.58
2018-03-24T04:46:45.200Z,42.53
2018-03-24T04:49:16.201Z,46.03
2018-03-24T04:51:47.214Z,43.50
2018-03-24T04:54:18.220Z,45.25
2018-03-24T04:56:49.214Z,45.55
2018-03-24T04:59:20.232Z,43.50
2018-03-24T05:01:51.186Z,46.40
2018-03-24T05:04:22.173Z,45.40
2018-03-24T05:06:53.216Z,47.58
2018-03-24T05:09:24.225Z,45.08
2018-03-24T05:11:55.168Z,46.75
2018-03-24T05:14:26.196Z,49.23
2018-03-24T05:16:57.238Z,51.53
2018-03-24T05:19:28.225Z,46.60
2018-03-24T05:21:59.194Z,46.53
2018-03-24T05:24:37.028Z,48.00
2018-03-24T05:27:08.024Z,48.63
2018-03-24T05:29:38.982Z,46.40
2018-03-24T05:32:10.009Z,45.50
2018-03-24T05:34:40.980Z,48.90
2018-03-24T05:37:12.006Z,46.20
2018-03-24T05:39:42.973Z,46.03
2018-03-24T05:42:14.012Z,46.70
2018-03-24T05:44:45.016Z,44.50
2018-03-24T05:47:16.036Z,42.25
2018-03-24T05:49:47.017Z,41.60
2018-03-24T05:52:18.003Z,41.37
2018-03-24T05:54:49.008Z,40.30
2018-03-24T05:57:19.958Z,41.20
2018-03-24T05:59:50.973Z,40.43
2018-03-24T06:02:21.970Z,39.25
2018-03-24T06:04:52.971Z,37.20
2018-03-24T06:07:23.990Z,38.70
2018-03-24T06:09:55.008Z,38.33
2018-03-24T06:12:25.992Z,34.28
2018-03-24T06:14:56.988Z,34.30
2018-03-24T06:17:27.982Z,33.57
2018-03-24T06:19:58.987Z,34.13
2018-03-24T06:22:29.992Z,34.03
2018-03-24T06:25:00.977Z,35.20
2018-03-24T06:27:32.003Z,34.37
2018-03-24T06:30:03.981Z,33.30
2018-03-24T06:32:42.008Z,33.77
2018-03-24T06:35:12.999Z,32.47
2018-03-24T06:37:44.022Z,31.73
2018-03-24T06:40:15.047Z,35.83
2018-03-24T06:42:46.030Z,32.93
2018-03-24T06:45:17.074Z,33.37
2018-03-24T06:47:48.028Z,35.37
2018-03-24T06:50:19.043Z,33.93
2018-03-24T06:52:50.023Z,33.60
2018-03-24T06:55:21.064Z,34.50
2018-03-24T06:57:52.078Z,32.93
2018-03-24T07:00:23.078Z,33.67
2018-03-24T07:02:54.087Z,36.20
2018-03-24T07:05:25.116Z,34.20
2018-03-24T07:07:56.127Z,36.07
2018-03-24T07:10:27.150Z,37.30
2018-03-24T07:12:58.138Z,36.17
2018-03-24T07:15:29.144Z,35.20
2018-03-24T07:18:00.171Z,35.10
2018-03-24T07:20:31.145Z,38.23
2018-03-24T07:23:02.179Z,36.87
2018-03-24T07:25:33.171Z,34.03
2018-03-24T07:28:04.201Z,33.57
2018-03-24T07:30:35.164Z,32.53
2018-03-24T07:33:06.148Z,33.03
2018-03-24T07:35:37.146Z,33.70
2018-03-24T07:38:08.189Z,31.20
2018-03-24T07:40:39.208Z,32.70
2018-03-24T07:43:10.296Z,30.87
2018-03-24T07:45:41.311Z,32.23
2018-03-24T07:48:12.270Z,30.13
2018-03-24T07:50:43.301Z,30.83
2018-03-24T07:53:14.326Z,30.47
2018-03-24T07:55:45.399Z,33.67
2018-03-24T07:58:16.416Z,33.00
2018-03-24T08:00:47.384Z,32.07
2018-03-24T08:03:18.351Z,31.23
2018-03-24T08:05:49.712Z,30.23
2018-03-24T08:08:20.697Z,29.73
2018-03-24T08:10:51.706Z,30.60
2018-03-24T08:13:22.699Z,30.17
2018-03-24T08:15:53.681Z,30.63
2018-03-24T08:18:24.650Z,30.17
2018-03-24T08:20:55.668Z,30.63
2018-03-24T08:23:26.657Z,29.57
2018-03-24T08:25:57.640Z,30.03
2018-03-24T08:28:28.645Z,30.47
2018-03-24T08:30:59.624Z,29.53
2018-03-24T08:33:30.591Z,30.57
2018-03-24T08:36:01.558Z,30.30
2018-03-24T08:38:32.566Z,29.00
2018-03-24T08:41:03.540Z,28.13
2018-03-24T08:43:34.505Z,27.83
2018-03-24T08:46:05.561Z,29.13
2018-03-24T08:48:36.546Z,28.33
2018-03-24T08:51:10.474Z,27.23
2018-03-24T08:53:41.467Z,29.23
2018-03-24T08:56:12.474Z,27.87
2018-03-24T08:58:43.506Z,31.42
2018-03-24T09:01:14.542Z,28.53
2018-03-24T09:03:45.496Z,26.43
2018-03-24T09:06:16.472Z,27.27
2018-03-24T09:08:47.496Z,26.83
2018-03-24T09:11:18.471Z,27.07
2018-03-24T09:13:49.434Z,26.33
2018-03-24T09:16:20.429Z,27.47
2018-03-24T09:18:51.421Z,26.77
2018-03-24T09:21:22.431Z,27.50
2018-03-24T09:23:53.429Z,26.90
2018-03-24T09:26:24.423Z,27.30
2018-03-24T09:28:55.391Z,25.63
2018-03-24T09:31:26.338Z,26.80
2018-03-24T09:33:57.351Z,24.97
2018-03-24T09:36:28.352Z,24.37
2018-03-24T09:38:59.303Z,24.80
2018-03-24T09:41:30.308Z,25.93
2018-03-24T09:44:01.303Z,25.00
2018-03-24T09:46:32.300Z,25.70
2018-03-24T09:49:03.328Z,25.12
2018-03-24T09:51:34.327Z,23.77
2018-03-24T09:54:05.324Z,25.23
2018-03-24T09:56:36.333Z,23.03
2018-03-24T09:59:07.312Z,21.70
2018-03-24T10:01:38.326Z,21.97
2018-03-24T10:04:09.276Z,20.50
2018-03-24T10:06:40.279Z,18.80
2018-03-24T10:09:11.315Z,19.20
2018-03-24T10:11:42.304Z,19.23
2018-03-24T10:14:13.291Z,20.90
2018-03-24T10:16:44.324Z,21.45
2018-03-24T10:19:15.299Z,21.17
2018-03-24T10:24:54.405Z,20.63
2018-03-24T10:27:25.388Z,18.50
2018-03-24T10:29:56.360Z,18.57
2018-03-24T10:32:27.411Z,18.90
2018-03-24T10:35:04.548Z,19.17
2018-03-24T10:37:41.632Z,19.48
2018-03-24T10:40:12.582Z,20.08
2018-03-24T10:42:49.625Z,19.02
2018-03-24T10:45:20.612Z,19.50
2018-03-24T10:47:51.595Z,21.02
2018-03-24T10:50:22.567Z,22.00
2018-03-24T10:52:53.577Z,21.02
2018-03-24T10:55:24.550Z,20.52
2018-03-24T10:57:55.573Z,19.37
2018-03-24T11:00:32.425Z,19.92
2018-03-24T11:03:03.409Z,20.02
2018-03-24T11:05:34.459Z,19.83
2018-03-24T11:08:05.480Z,20.13
2018-03-24T11:10:36.501Z,20.87
2018-03-24T11:13:07.496Z,18.65
2018-03-24T11:15:38.505Z,18.12
2018-03-24T11:18:09.477Z,19.07
2018-03-24T11:20:40.475Z,19.42
2018-03-24T11:23:11.486Z,17.13
2018-03-24T11:25:42.472Z,17.33
2018-03-24T11:28:13.407Z,16.20
2018-03-24T11:30:44.367Z,16.60
2018-03-24T11:33:15.376Z,15.70
2018-03-24T11:35:46.389Z,16.77
2018-03-24T11:38:17.391Z,16.57
2018-03-24T11:40:48.378Z,16.27
2018-03-24T11:43:19.417Z,16.43
2018-03-24T11:45:50.462Z,15.40
2018-03-24T11:48:21.507Z,14.23
2018-03-24T11:50:52.477Z,14.23
2018-03-24T11:53:35.963Z,13.10
2018-03-24T11:56:06.953Z,13.30
2018-03-24T11:58:37.927Z,12.90
2018-03-24T12:01:08.924Z,13.50
2018-03-24T12:03:39.933Z,13.63
2018-03-24T12:06:10.932Z,11.87
2018-03-24T12:08:41.940Z,12.93
2018-03-24T12:11:12.923Z,12.83
2018-03-24T12:13:43.892Z,11.97
2018-03-24T12:16:14.873Z,13.10
2018-03-24T12:18:45.868Z,11.70
2018-03-24T12:21:16.864Z,12.17
2018-03-24T12:23:47.874Z,12.83
2018-03-24T12:26:18.834Z,12.60
2018-03-24T12:28:49.860Z,13.53
2018-03-24T12:31:20.827Z,13.33
2018-03-24T12:33:51.821Z,13.97
2018-03-24T12:36:22.789Z,13.77
2018-03-24T12:38:53.823Z,14.23
2018-03-24T12:41:24.828Z,14.50
2018-03-24T12:43:55.782Z,14.90
2018-03-24T12:46:26.788Z,14.33
2018-03-24T12:48:57.778Z,15.03
2018-03-24T12:51:28.775Z,13.93
2018-03-24T12:53:59.797Z,15.03
2018-03-24T12:56:30.804Z,15.70
2018-03-24T12:59:01.807Z,16.00
2018-03-24T13:01:32.780Z,15.67
2018-03-24T13:04:03.744Z,16.57
2018-03-24T13:06:34.739Z,17.47
2018-03-24T13:09:05.762Z,16.33
2018-03-24T13:11:36.778Z,15.37
2018-03-24T13:14:07.759Z,16.57
2018-03-24T13:16:38.729Z,17.43
2018-03-24T13:19:09.738Z,16.63
2018-03-24T13:21:40.727Z,16.63
2018-03-24T13:24:11.742Z,17.30
2018-03-24T13:26:43.632Z,16.57
2018-03-24T13:29:14.611Z,15.97
2018-03-24T13:31:45.611Z,16.33
2018-03-24T13:34:16.585Z,15.77
2018-03-24T13:36:47.597Z,16.33
2018-03-24T13:39:18.616Z,18.20
2018-03-24T13:41:49.584Z,17.33
2018-03-24T13:44:20.558Z,17.70
2018-03-24T13:46:51.578Z,16.83
2018-03-24T13:49:22.604Z,16.53
2018-03-24T13:51:53.586Z,18.00
2018-03-24T13:54:24.630Z,17.77
2018-03-24T13:56:55.633Z,15.70
2018-03-24T13:59:26.657Z,17.73
2018-03-24T14:01:57.658Z,16.80
2018-03-24T14:04:28.675Z,15.97
2018-03-24T14:06:59.645Z,15.83
2018-03-24T14:09:30.653Z,17.03
2018-03-24T14:12:01.674Z,17.20
2018-03-24T14:14:32.659Z,17.23
2018-03-24T14:17:03.674Z,16.53
2018-03-24T14:19:34.647Z,16.93
2018-03-24T14:22:05.660Z,16.90
2018-03-24T14:24:36.649Z,16.27
2018-03-24T14:27:07.693Z,16.57
2018-03-24T14:29:38.690Z,16.50
2018-03-24T14:32:09.668Z,17.67
2018-03-24T14:34:40.665Z,16.43
2018-03-24T14:37:11.682Z,17.33
2018-03-24T14:39:42.702Z,16.17
2018-03-24T14:42:13.700Z,17.30
2018-03-24T14:44:44.732Z,17.90
2018-03-24T14:47:15.784Z,16.83
2018-03-24T14:49:46.817Z,18.47
2018-03-24T14:52:17.820Z,17.30
2018-03-24T14:54:48.780Z,17.07
2018-03-24T14:57:19.744Z,16.20
2018-03-24T14:59:50.758Z,16.10
2018-03-24T15:02:21.810Z,15.57
2018-03-24T15:04:52.767Z,15.93
2018-03-24T15:07:23.803Z,14.43
2018-03-24T15:09:54.792Z,16.13
2018-03-24T15:12:25.792Z,15.30
2018-03-24T15:14:56.787Z,15.00
2018-03-24T15:17:27.786Z,18.33
2018-03-24T15:19:58.779Z,16.30
2018-03-24T15:22:29.749Z,15.03
2018-03-24T15:25:00.759Z,16.33
2018-03-24T15:27:31.766Z,15.57
2018-03-24T15:30:15.051Z,17.00
2018-03-24T15:36:02.376Z,14.10
2018-03-24T15:38:33.360Z,14.80
2018-03-24T15:41:04.369Z,15.43
2018-03-24T15:43:35.335Z,15.50
2018-03-24T15:46:06.385Z,14.33
2018-03-24T15:48:37.390Z,15.00
2018-03-24T15:51:08.390Z,14.37
2018-03-24T15:53:39.373Z,15.07
2018-03-24T15:56:10.409Z,14.90
2018-03-24T15:58:41.395Z,14.87
2018-03-24T16:01:12.395Z,15.60
2018-03-24T16:03:43.427Z,14.83
2018-03-24T16:06:14.413Z,13.10
2018-03-24T16:08:45.987Z,13.20
2018-03-24T16:11:17.002Z,14.23
2018-03-24T16:13:47.973Z,12.87
2018-03-24T16:16:18.975Z,12.97
2018-03-24T16:18:49.998Z,13.60
2018-03-24T16:21:21.060Z,14.70
2018-03-24T16:23:53.015Z,15.60
2018-03-24T16:26:23.966Z,13.47
2018-03-24T16:28:54.961Z,14.67
2018-03-24T16:31:26.005Z,14.13
2018-03-24T16:33:57.058Z,14.53
2018-03-24T16:36:28.061Z,14.90
2018-03-24T16:38:59.106Z,14.13
2018-03-24T16:41:30.096Z,15.67
2018-03-24T16:44:01.134Z,15.50
2018-03-24T16:46:32.147Z,15.57
2018-03-24T16:49:03.191Z,13.83
2018-03-24T16:51:34.273Z,13.53
2018-03-24T16:54:05.272Z,16.00
2018-03-24T16:56:36.252Z,14.37
2018-03-24T16:59:07.213Z,14.77
2018-03-24T17:01:38.226Z,14.90
2018-03-24T17:04:09.203Z,13.73
2018-03-24T17:06:40.206Z,13.77
2018-03-24T17:09:11.177Z,14.63
2018-03-24T17:11:42.193Z,13.90
2018-03-24T17:14:13.225Z,13.17
2018-03-24T17:16:44.238Z,14.23
2018-03-24T17:19:15.231Z,13.53
2018-03-24T17:21:46.232Z,14.90
2018-03-24T17:24:17.242Z,14.10
2018-03-24T17:26:48.254Z,13.50
2018-03-24T17:29:19.308Z,13.77
2018-03-24T17:31:50.263Z,14.00
2018-03-24T17:34:21.243Z,13.37
2018-03-24T17:36:52.209Z,12.63
2018-03-24T17:39:23.262Z,14.67
2018-03-24T17:41:54.312Z,14.10
2018-03-24T17:44:25.385Z,14.17
2018-03-24T17:46:56.357Z,14.00
2018-03-24T17:49:27.391Z,14.93
2018-03-24T17:51:58.413Z,13.93
2018-03-24T17:54:29.410Z,15.10
2018-03-24T17:57:00.468Z,14.23
2018-03-24T17:59:31.503Z,15.07
2018-03-24T18:02:02.486Z,15.17
2018-03-24T18:04:33.519Z,13.73
2018-03-24T18:07:04.587Z,15.80
2018-03-24T18:09:35.626Z,14.77
2018-03-24T18:12:06.632Z,14.93
2018-03-24T18:14:37.613Z,14.90
2018-03-24T18:17:08.654Z,15.00
2018-03-24T18:19:39.637Z,14.93
2018-03-24T18:22:10.642Z,14.83
2018-03-24T18:24:41.606Z,14.57
2018-03-24T18:27:12.616Z,15.53
2018-03-24T18:29:43.624Z,14.27
2018-03-24T18:32:14.581Z,15.03
2018-03-24T18:34:45.571Z,13.20
2018-03-24T18:37:16.582Z,16.13
2018-03-24T18:39:47.547Z,15.57
2018-03-24T18:42:18.553Z,15.03
2018-03-24T18:44:49.563Z,15.63
2018-03-24T18:47:20.588Z,15.97
2018-03-24T18:49:51.607Z,16.67
2018-03-24T18:52:22.584Z,15.37
2018-03-24T18:54:53.574Z,16.47
2018-03-24T18:57:24.551Z,16.20
2018-03-24T18:59:55.555Z,15.37
2018-03-24T19:02:26.552Z,15.73
2018-03-24T19:04:57.517Z,16.07
2018-03-24T19:07:28.491Z,16.30
2018-03-24T19:09:59.432Z,18.40
2018-03-24T19:12:30.466Z,18.30
2018-03-24T19:15:01.439Z,19.23
2018-03-24T19:17:39.280Z,21.03
2018-03-24T19:20:10.256Z,19.67
2018-03-24T19:22:41.287Z,19.37
2018-03-24T19:25:12.301Z,19.67
2018-03-24T19:27:43.312Z,19.13
2018-03-24T19:30:14.303Z,22.63
2018-03-24T19:32:45.276Z,21.20
2018-03-24T19:35:16.285Z,21.47
2018-03-24T19:37:47.309Z,20.43
2018-03-24T19:40:18.306Z,20.77
2018-03-24T19:42:49.299Z,20.03
2018-03-24T19:45:20.306Z,21.20
2018-03-24T19:47:51.370Z,18.80
2018-03-24T19:50:22.386Z,19.93
2018-03-24T19:52:53.347Z,19.77
2018-03-24T19:55:24.390Z,18.57
2018-03-24T19:57:55.403Z,18.57
2018-03-24T20:00:26.401Z,18.07
2018-03-24T20:02:57.365Z,18.07
2018-03-24T20:05:28.322Z,18.27
2018-03-24T20:07:59.332Z,17.07
2018-03-24T20:10:30.290Z,18.60
2018-03-24T20:13:01.296Z,17.50
2018-03-24T20:15:32.324Z,17.80
2018-03-24T20:18:03.416Z,20.10
2018-03-24T20:20:34.437Z,20.97
2018-03-24T20:23:05.455Z,19.40
2018-03-24T20:25:36.428Z,22.60
2018-03-24T20:28:07.463Z,22.87
2018-03-24T20:30:38.415Z,22.10
2018-03-24T20:33:09.390Z,23.23
2018-03-24T20:35:40.421Z,21.17
2018-03-24T20:38:11.430Z,20.67
2018-03-24T20:40:42.439Z,17.73
2018-03-24T20:43:13.446Z,18.83
2018-03-24T20:45:44.468Z,18.83
2018-03-24T20:48:15.466Z,14.97
2018-03-24T20:50:46.469Z,16.10
2018-03-24T20:53:17.441Z,17.07
2018-03-24T20:55:48.445Z,15.30
2018-03-24T20:58:19.466Z,15.80
2018-03-24T21:00:50.489Z,14.90
2018-03-24T21:03:21.501Z,16.13
2018-03-24T21:05:52.514Z,16.90
2018-03-24T21:08:23.492Z,16.87
2018-03-24T21:10:54.458Z,15.70
2018-03-24T21:13:25.484Z,16.33
2018-03-24T21:15:56.469Z,15.83
2018-03-24T21:18:27.486Z,17.67
2018-03-24T21:20:58.463Z,16.63
2018-03-24T21:23:29.505Z,16.43
2018-03-24T21:26:00.507Z,16.30
2018-03-24T21:28:31.482Z,17.43
2018-03-24T21:31:02.471Z,16.47
2018-03-24T21:33:33.471Z,17.23
2018-03-24T21:36:04.460Z,18.87
2018-03-24T21:38:35.480Z,16.80
2018-03-24T21:41:06.479Z,17.70
2018-03-24T21:43:37.538Z,16.63
2018-03-24T21:46:08.579Z,17.40
2018-03-24T21:48:39.546Z,16.23
2018-03-24T21:51:10.558Z,16.27
2018-03-24T21:53:41.554Z,18.13
2018-03-24T21:56:12.552Z,19.97
2018-03-24T21:58:43.554Z,22.00
2018-03-24T22:01:14.513Z,17.10
2018-03-24T22:03:45.493Z,18.90
2018-03-24T22:06:16.495Z,18.23
2018-03-24T22:08:47.527Z,19.23
2018-03-24T22:11:18.503Z,19.70
2018-03-24T22:13:49.487Z,17.27
2018-03-24T22:16:20.490Z,18.47
2018-03-24T22:18:51.427Z,18.20
2018-03-24T22:21:22.426Z,19.27
2018-03-24T22:23:53.373Z,19.03
2018-03-24T22:26:24.340Z,20.03
2018-03-24T22:28:55.350Z,18.37
2018-03-24T22:31:26.344Z,19.02
2018-03-24T22:33:57.308Z,19.27
2018-03-24T22:36:28.308Z,18.37
2018-03-24T22:38:59.325Z,20.03
2018-03-24T22:41:30.349Z,20.00
2018-03-24T22:44:01.372Z,19.42
2018-03-24T22:46:32.373Z,20.83
2018-03-24T22:49:03.415Z,21.80
2018-03-24T22:51:34.398Z,21.15
2018-03-24T22:54:05.408Z,21.77
2018-03-24T22:56:36.396Z,21.55
2018-03-24T22:59:07.393Z,20.97
2018-03-24T23:01:38.383Z,22.53
2018-03-24T23:04:09.429Z,21.37
2018-03-24T23:06:40.429Z,21.20
2018-03-24T23:09:11.486Z,22.42
2018-03-24T23:11:42.446Z,21.65
2018-03-24T23:14:13.455Z,20.17
2018-03-24T23:16:44.432Z,21.33
2018-03-24T23:19:15.439Z,20.90
2018-03-24T23:21:46.454Z,20.98
2018-03-24T23:24:17.459Z,19.92
2018-03-24T23:26:48.478Z,21.50
2018-03-24T23:29:19.509Z,21.90
2018-03-24T23:31:50.515Z,19.62
2018-03-24T23:34:21.493Z,23.03
2018-03-24T23:36:52.471Z,22.37
2018-03-24T23:39:23.479Z,21.90
2018-03-24T23:41:54.551Z,22.80
2018-03-24T23:44:25.577Z,22.67
2018-03-24T23:46:56.523Z,22.50
2018-03-24T23:49:27.507Z,23.70
2018-03-24T23:51:58.465Z,21.27
2018-03-24T23:54:29.474Z,20.70
2018-03-24T23:57:00.487Z,21.40
2018-03-24T23:59:31.486Z,20.00
